sensor_id;sensor_type;location;lat;lon;timestamp;P1;durP1;ratioP1;P2;durP2;ratioP2
50549;SDS011;36505;52.512;13.460;2023-03-01T00:00:52;28.30;;;12.52;;
50549;SDS011;36505;52.512;13.460;2023-03-01T00:03:17;25.42;;;10.80;;
50549;SDS011;36505;52.512;13.460;2023-03-01T00:05:45;26.40;;;11.63;;
50549;SDS011;36505;52.512;13.460;2023-03-01T00:08:11;21.98;;;10.15;;
50549;SDS011;36505;52.512;13.460;2023-03-01T00:10:37;19.98;;;9.60;;
50549;SDS011;36505;52.512;13.460;2023-03-01T00:13:02;22.75;;;10.00;;
50549;SDS011;36505;52.512;13.460;2023-03-01T00:15:30;25.75;;;12.00;;
50549;SDS011;36505;52.512;13.460;2023-03-01T00:17:56;21.27;;;8.68;;
50549;SDS011;36505;52.512;13.460;2023-03-01T00:20:22;22.77;;;9.15;;
50549;SDS011;36505;52.512;13.460;2023-03-01T00:22:47;18.15;;;9.15;;
50549;SDS011;36505;52.512;13.460;2023-03-01T00:25:12;23.10;;;10.48;;
50549;SDS011;36505;52.512;13.460;2023-03-01T00:27:38;21.85;;;10.52;;
50549;SDS011;36505;52.512;13.460;2023-03-01T00:30:03;20.33;;;10.25;;
50549;SDS011;36505;52.512;13.460;2023-03-01T00:32:30;21.88;;;9.15;;
50549;SDS011;36505;52.512;13.460;2023-03-01T00:34:55;16.98;;;7.97;;
50549;SDS011;36505;52.512;13.460;2023-03-01T00:37:21;27.23;;;11.10;;
50549;SDS011;36505;52.512;13.460;2023-03-01T00:39:47;21.02;;;9.32;;
50549;SDS011;36505;52.512;13.460;2023-03-01T00:42:13;17.77;;;8.95;;
50549;SDS011;36505;52.512;13.460;2023-03-01T00:44:38;33.05;;;10.18;;
50549;SDS011;36505;52.512;13.460;2023-03-01T00:47:04;22.63;;;9.25;;
50549;SDS011;36505;52.512;13.460;2023-03-01T00:49:29;20.50;;;9.50;;
50549;SDS011;36505;52.512;13.460;2023-03-01T00:51:54;23.52;;;9.75;;
50549;SDS011;36505;52.512;13.460;2023-03-01T00:54:20;16.33;;;9.13;;
50549;SDS011;36505;52.512;13.460;2023-03-01T00:56:45;19.17;;;8.70;;
50549;SDS011;36505;52.512;13.460;2023-03-01T00:59:10;21.48;;;9.20;;
50549;SDS011;36505;52.512;13.460;2023-03-01T01:01:36;20.13;;;9.70;;
50549;SDS011;36505;52.512;13.460;2023-03-01T01:04:09;23.70;;;9.35;;
50549;SDS011;36505;52.512;13.460;2023-03-01T01:06:37;17.02;;;7.22;;
50549;SDS011;36505;52.512;13.460;2023-03-01T01:09:07;13.45;;;6.93;;
50549;SDS011;36505;52.512;13.460;2023-03-01T01:11:33;21.20;;;7.47;;
50549;SDS011;36505;52.512;13.460;2023-03-01T01:14:03;15.15;;;7.38;;
50549;SDS011;36505;52.512;13.460;2023-03-01T01:16:28;16.52;;;6.72;;
50549;SDS011;36505;52.512;13.460;2023-03-01T01:18:55;13.98;;;7.30;;
50549;SDS011;36505;52.512;13.460;2023-03-01T01:21:22;17.27;;;8.57;;
50549;SDS011;36505;52.512;13.460;2023-03-01T01:23:49;21.55;;;9.18;;
50549;SDS011;36505;52.512;13.460;2023-03-01T01:26:24;18.23;;;7.80;;
50549;SDS011;36505;52.512;13.460;2023-03-01T01:28:52;15.80;;;8.02;;
50549;SDS011;36505;52.512;13.460;2023-03-01T01:31:18;14.15;;;7.03;;
50549;SDS011;36505;52.512;13.460;2023-03-01T01:33:44;21.08;;;8.68;;
50549;SDS011;36505;52.512;13.460;2023-03-01T01:36:10;20.52;;;7.53;;
50549;SDS011;36505;52.512;13.460;2023-03-01T01:38:36;23.45;;;8.57;;
50549;SDS011;36505;52.512;13.460;2023-03-01T01:41:02;20.17;;;8.57;;
50549;SDS011;36505;52.512;13.460;2023-03-01T01:43:29;22.70;;;8.73;;
50549;SDS011;36505;52.512;13.460;2023-03-01T01:46:14;16.42;;;8.65;;
50549;SDS011;36505;52.512;13.460;2023-03-01T01:48:55;18.52;;;9.32;;
50549;SDS011;36505;52.512;13.460;2023-03-01T01:51:25;24.08;;;8.38;;
50549;SDS011;36505;52.512;13.460;2023-03-01T01:54:03;17.95;;;8.45;;
50549;SDS011;36505;52.512;13.460;2023-03-01T01:56:33;20.67;;;8.85;;
50549;SDS011;36505;52.512;13.460;2023-03-01T01:58:58;22.13;;;8.18;;
50549;SDS011;36505;52.512;13.460;2023-03-01T02:01:24;22.08;;;8.82;;
50549;SDS011;36505;52.512;13.460;2023-03-01T02:03:49;21.42;;;8.60;;
50549;SDS011;36505;52.512;13.460;2023-03-01T02:06:22;16.73;;;7.65;;
50549;SDS011;36505;52.512;13.460;2023-03-01T02:08:54;24.58;;;8.82;;
50549;SDS011;36505;52.512;13.460;2023-03-01T02:11:22;23.45;;;9.02;;
50549;SDS011;36505;52.512;13.460;2023-03-01T02:13:48;17.92;;;9.75;;
50549;SDS011;36505;52.512;13.460;2023-03-01T02:16:14;22.02;;;9.00;;
50549;SDS011;36505;52.512;13.460;2023-03-01T02:18:41;21.52;;;8.88;;
50549;SDS011;36505;52.512;13.460;2023-03-01T02:23:52;21.88;;;9.38;;
50549;SDS011;36505;52.512;13.460;2023-03-01T02:26:21;18.58;;;8.95;;
50549;SDS011;36505;52.512;13.460;2023-03-01T02:28:54;25.05;;;9.20;;
50549;SDS011;36505;52.512;13.460;2023-03-01T02:31:20;20.80;;;8.57;;
50549;SDS011;36505;52.512;13.460;2023-03-01T02:34:04;19.15;;;7.85;;
50549;SDS011;36505;52.512;13.460;2023-03-01T02:36:36;22.30;;;8.93;;
50549;SDS011;36505;52.512;13.460;2023-03-01T02:39:05;18.00;;;9.65;;
50549;SDS011;36505;52.512;13.460;2023-03-01T02:41:34;18.90;;;8.50;;
50549;SDS011;36505;52.512;13.460;2023-03-01T02:44:02;21.65;;;9.05;;
50549;SDS011;36505;52.512;13.460;2023-03-01T02:46:29;19.50;;;8.35;;
50549;SDS011;36505;52.512;13.460;2023-03-01T02:48:58;22.02;;;9.07;;
50549;SDS011;36505;52.512;13.460;2023-03-01T02:54:08;19.48;;;9.55;;
50549;SDS011;36505;52.512;13.460;2023-03-01T02:56:54;22.65;;;8.60;;
50549;SDS011;36505;52.512;13.460;2023-03-01T02:59:21;18.95;;;8.55;;
50549;SDS011;36505;52.512;13.460;2023-03-01T03:01:50;19.35;;;9.45;;
50549;SDS011;36505;52.512;13.460;2023-03-01T03:04:16;23.92;;;10.00;;
50549;SDS011;36505;52.512;13.460;2023-03-01T03:06:47;20.20;;;8.00;;
50549;SDS011;36505;52.512;13.460;2023-03-01T03:09:15;21.60;;;10.05;;
50549;SDS011;36505;52.512;13.460;2023-03-01T03:11:42;20.83;;;9.07;;
50549;SDS011;36505;52.512;13.460;2023-03-01T03:14:09;16.80;;;7.35;;
50549;SDS011;36505;52.512;13.460;2023-03-01T03:16:44;22.15;;;9.32;;
50549;SDS011;36505;52.512;13.460;2023-03-01T03:19:12;18.95;;;8.07;;
50549;SDS011;36505;52.512;13.460;2023-03-01T03:21:38;20.67;;;9.10;;
50549;SDS011;36505;52.512;13.460;2023-03-01T03:24:04;19.65;;;9.38;;
50549;SDS011;36505;52.512;13.460;2023-03-01T03:26:30;17.38;;;8.02;;
50549;SDS011;36505;52.512;13.460;2023-03-01T03:28:56;19.20;;;8.48;;
50549;SDS011;36505;52.512;13.460;2023-03-01T03:31:22;24.55;;;8.43;;
50549;SDS011;36505;52.512;13.460;2023-03-01T03:33:47;22.48;;;8.60;;
50549;SDS011;36505;52.512;13.460;2023-03-01T03:36:16;15.55;;;8.20;;
50549;SDS011;36505;52.512;13.460;2023-03-01T03:38:43;18.48;;;8.02;;
50549;SDS011;36505;52.512;13.460;2023-03-01T03:41:10;21.92;;;8.20;;
50549;SDS011;36505;52.512;13.460;2023-03-01T03:43:37;19.50;;;7.90;;
50549;SDS011;36505;52.512;13.460;2023-03-01T03:46:04;18.48;;;8.52;;
50549;SDS011;36505;52.512;13.460;2023-03-01T03:48:32;18.02;;;9.38;;
50549;SDS011;36505;52.512;13.460;2023-03-01T03:50:59;21.27;;;10.20;;
50549;SDS011;36505;52.512;13.460;2023-03-01T03:53:25;22.70;;;10.10;;
50549;SDS011;36505;52.512;13.460;2023-03-01T03:55:51;23.83;;;10.70;;
50549;SDS011;36505;52.512;13.460;2023-03-01T03:58:18;22.80;;;10.40;;
50549;SDS011;36505;52.512;13.460;2023-03-01T04:00:45;19.08;;;10.40;;
50549;SDS011;36505;52.512;13.460;2023-03-01T04:03:12;26.17;;;11.57;;
50549;SDS011;36505;52.512;13.460;2023-03-01T04:05:39;27.92;;;12.05;;
50549;SDS011;36505;52.512;13.460;2023-03-01T04:08:05;27.48;;;12.23;;
50549;SDS011;36505;52.512;13.460;2023-03-01T04:10:39;26.50;;;11.48;;
50549;SDS011;36505;52.512;13.460;2023-03-01T04:13:06;25.33;;;11.38;;
50549;SDS011;36505;52.512;13.460;2023-03-01T04:15:34;33.83;;;11.95;;
50549;SDS011;36505;52.512;13.460;2023-03-01T04:18:00;25.67;;;12.15;;
50549;SDS011;36505;52.512;13.460;2023-03-01T04:20:26;25.67;;;12.30;;
50549;SDS011;36505;52.512;13.460;2023-03-01T04:25:39;24.75;;;12.45;;
50549;SDS011;36505;52.512;13.460;2023-03-01T04:28:06;22.55;;;12.30;;
50549;SDS011;36505;52.512;13.460;2023-03-01T04:30:32;30.17;;;12.52;;
50549;SDS011;36505;52.512;13.460;2023-03-01T04:33:09;27.05;;;11.40;;
50549;SDS011;36505;52.512;13.460;2023-03-01T04:35:36;24.77;;;11.40;;
50549;SDS011;36505;52.512;13.460;2023-03-01T04:38:02;25.67;;;11.18;;
50549;SDS011;36505;52.512;13.460;2023-03-01T04:40:28;22.58;;;11.18;;
50549;SDS011;36505;52.512;13.460;2023-03-01T04:42:54;30.63;;;13.40;;
50549;SDS011;36505;52.512;13.460;2023-03-01T04:45:19;39.00;;;18.25;;
50549;SDS011;36505;52.512;13.460;2023-03-01T04:47:45;30.75;;;12.35;;
50549;SDS011;36505;52.512;13.460;2023-03-01T04:50:12;27.60;;;11.80;;
50549;SDS011;36505;52.512;13.460;2023-03-01T04:52:40;23.58;;;12.00;;
50549;SDS011;36505;52.512;13.460;2023-03-01T04:55:06;27.13;;;12.25;;
50549;SDS011;36505;52.512;13.460;2023-03-01T04:57:32;25.10;;;11.63;;
50549;SDS011;36505;52.512;13.460;2023-03-01T04:59:58;23.15;;;12.57;;
50549;SDS011;36505;52.512;13.460;2023-03-01T05:02:23;26.27;;;14.25;;
50549;SDS011;36505;52.512;13.460;2023-03-01T05:04:49;24.35;;;11.77;;
50549;SDS011;36505;52.512;13.460;2023-03-01T05:07:14;24.02;;;11.63;;
50549;SDS011;36505;52.512;13.460;2023-03-01T05:09:44;27.50;;;11.88;;
50549;SDS011;36505;52.512;13.460;2023-03-01T05:12:12;26.98;;;12.23;;
50549;SDS011;36505;52.512;13.460;2023-03-01T05:14:38;23.67;;;12.40;;
50549;SDS011;36505;52.512;13.460;2023-03-01T05:17:04;26.30;;;11.65;;
50549;SDS011;36505;52.512;13.460;2023-03-01T05:19:30;27.42;;;11.52;;
50549;SDS011;36505;52.512;13.460;2023-03-01T05:21:56;22.20;;;11.38;;
50549;SDS011;36505;52.512;13.460;2023-03-01T05:24:32;26.88;;;13.45;;
50549;SDS011;36505;52.512;13.460;2023-03-01T05:26:59;20.23;;;11.10;;
50549;SDS011;36505;52.512;13.460;2023-03-01T05:29:26;22.77;;;11.43;;
50549;SDS011;36505;52.512;13.460;2023-03-01T05:31:54;24.70;;;12.25;;
50549;SDS011;36505;52.512;13.460;2023-03-01T05:34:24;29.70;;;13.85;;
50549;SDS011;36505;52.512;13.460;2023-03-01T05:36:51;28.55;;;12.88;;
50549;SDS011;36505;52.512;13.460;2023-03-01T05:39:18;31.60;;;13.98;;
50549;SDS011;36505;52.512;13.460;2023-03-01T05:41:55;37.83;;;15.27;;
50549;SDS011;36505;52.512;13.460;2023-03-01T05:44:21;30.40;;;14.50;;
50549;SDS011;36505;52.512;13.460;2023-03-01T05:46:48;30.75;;;14.13;;
50549;SDS011;36505;52.512;13.460;2023-03-01T05:49:14;24.25;;;12.32;;
50549;SDS011;36505;52.512;13.460;2023-03-01T05:51:40;31.50;;;13.07;;
50549;SDS011;36505;52.512;13.460;2023-03-01T05:54:06;30.05;;;13.02;;
50549;SDS011;36505;52.512;13.460;2023-03-01T05:56:36;29.40;;;13.32;;
50549;SDS011;36505;52.512;13.460;2023-03-01T05:59:02;26.75;;;13.70;;
50549;SDS011;36505;52.512;13.460;2023-03-01T06:01:29;31.30;;;14.57;;
50549;SDS011;36505;52.512;13.460;2023-03-01T06:03:55;31.52;;;12.98;;
50549;SDS011;36505;52.512;13.460;2023-03-01T06:06:21;33.45;;;13.40;;
50549;SDS011;36505;52.512;13.460;2023-03-01T06:08:50;31.10;;;14.40;;
50549;SDS011;36505;52.512;13.460;2023-03-01T06:11:16;33.30;;;15.27;;
50549;SDS011;36505;52.512;13.460;2023-03-01T06:13:42;35.33;;;14.75;;
50549;SDS011;36505;52.512;13.460;2023-03-01T06:16:08;27.33;;;13.02;;
50549;SDS011;36505;52.512;13.460;2023-03-01T06:18:34;28.95;;;13.80;;
50549;SDS011;36505;52.512;13.460;2023-03-01T06:21:03;32.78;;;14.73;;
50549;SDS011;36505;52.512;13.460;2023-03-01T06:23:29;36.60;;;14.88;;
50549;SDS011;36505;52.512;13.460;2023-03-01T06:25:54;32.22;;;15.73;;
50549;SDS011;36505;52.512;13.460;2023-03-01T06:28:19;34.72;;;15.43;;
50549;SDS011;36505;52.512;13.460;2023-03-01T06:30:45;38.17;;;15.95;;
50549;SDS011;36505;52.512;13.460;2023-03-01T06:33:11;35.70;;;14.90;;
50549;SDS011;36505;52.512;13.460;2023-03-01T06:35:36;35.03;;;13.95;;
50549;SDS011;36505;52.512;13.460;2023-03-01T06:38:02;31.50;;;14.48;;
50549;SDS011;36505;52.512;13.460;2023-03-01T06:40:30;33.95;;;14.35;;
50549;SDS011;36505;52.512;13.460;2023-03-01T06:42:56;32.15;;;14.80;;
50549;SDS011;36505;52.512;13.460;2023-03-01T06:45:23;30.23;;;15.23;;
50549;SDS011;36505;52.512;13.460;2023-03-01T06:47:48;34.78;;;15.57;;
50549;SDS011;36505;52.512;13.460;2023-03-01T06:50:14;35.65;;;16.80;;
50549;SDS011;36505;52.512;13.460;2023-03-01T06:52:40;34.35;;;16.00;;
50549;SDS011;36505;52.512;13.460;2023-03-01T06:55:05;35.03;;;16.02;;
50549;SDS011;36505;52.512;13.460;2023-03-01T06:57:31;31.30;;;15.38;;
50549;SDS011;36505;52.512;13.460;2023-03-01T06:59:57;41.50;;;16.23;;
50549;SDS011;36505;52.512;13.460;2023-03-01T07:02:22;30.65;;;15.43;;
50549;SDS011;36505;52.512;13.460;2023-03-01T07:04:51;33.22;;;16.52;;
50549;SDS011;36505;52.512;13.460;2023-03-01T07:07:16;40.80;;;16.58;;
50549;SDS011;36505;52.512;13.460;2023-03-01T07:09:43;30.88;;;16.02;;
50549;SDS011;36505;52.512;13.460;2023-03-01T07:12:09;32.85;;;16.92;;
50549;SDS011;36505;52.512;13.460;2023-03-01T07:14:34;27.58;;;15.95;;
50549;SDS011;36505;52.512;13.460;2023-03-01T07:17:00;27.48;;;14.85;;
50549;SDS011;36505;52.512;13.460;2023-03-01T07:19:25;34.15;;;16.60;;
50549;SDS011;36505;52.512;13.460;2023-03-01T07:21:51;36.92;;;16.85;;
50549;SDS011;36505;52.512;13.460;2023-03-01T07:24:16;41.10;;;21.08;;
50549;SDS011;36505;52.512;13.460;2023-03-01T07:26:41;37.85;;;16.38;;
50549;SDS011;36505;52.512;13.460;2023-03-01T07:29:07;33.38;;;15.75;;
50549;SDS011;36505;52.512;13.460;2023-03-01T07:31:34;32.83;;;14.90;;
50549;SDS011;36505;52.512;13.460;2023-03-01T07:34:00;33.13;;;15.90;;
50549;SDS011;36505;52.512;13.460;2023-03-01T07:36:25;32.10;;;17.50;;
50549;SDS011;36505;52.512;13.460;2023-03-01T07:38:50;31.35;;;15.15;;
50549;SDS011;36505;52.512;13.460;2023-03-01T07:41:16;29.63;;;15.38;;
50549;SDS011;36505;52.512;13.460;2023-03-01T07:43:42;35.15;;;15.57;;
50549;SDS011;36505;52.512;13.460;2023-03-01T07:46:07;30.38;;;15.18;;
50549;SDS011;36505;52.512;13.460;2023-03-01T07:48:33;27.13;;;14.98;;
50549;SDS011;36505;52.512;13.460;2023-03-01T07:50:59;50.63;;;26.38;;
50549;SDS011;36505;52.512;13.460;2023-03-01T07:53:29;22.63;;;14.48;;
50549;SDS011;36505;52.512;13.460;2023-03-01T07:58:27;24.73;;;11.55;;
50549;SDS011;36505;52.512;13.460;2023-03-01T08:00:53;26.40;;;12.75;;
50549;SDS011;36505;52.512;13.460;2023-03-01T08:03:18;32.33;;;15.60;;
50549;SDS011;36505;52.512;13.460;2023-03-01T08:05:43;26.48;;;12.93;;
50549;SDS011;36505;52.512;13.460;2023-03-01T08:08:09;18.40;;;10.88;;
50549;SDS011;36505;52.512;13.460;2023-03-01T08:10:35;21.63;;;10.82;;
50549;SDS011;36505;52.512;13.460;2023-03-01T08:13:01;25.85;;;12.70;;
50549;SDS011;36505;52.512;13.460;2023-03-01T08:15:26;19.80;;;12.63;;
50549;SDS011;36505;52.512;13.460;2023-03-01T08:17:52;20.90;;;11.43;;
50549;SDS011;36505;52.512;13.460;2023-03-01T08:20:17;19.20;;;11.43;;
50549;SDS011;36505;52.512;13.460;2023-03-01T08:22:43;21.25;;;11.38;;
50549;SDS011;36505;52.512;13.460;2023-03-01T08:25:08;17.70;;;9.73;;
50549;SDS011;36505;52.512;13.460;2023-03-01T08:27:34;15.85;;;8.68;;
50549;SDS011;36505;52.512;13.460;2023-03-01T08:30:00;11.65;;;6.82;;
50549;SDS011;36505;52.512;13.460;2023-03-01T08:32:25;13.85;;;7.85;;
50549;SDS011;36505;52.512;13.460;2023-03-01T08:34:50;13.30;;;7.57;;
50549;SDS011;36505;52.512;13.460;2023-03-01T08:37:16;11.90;;;7.38;;
50549;SDS011;36505;52.512;13.460;2023-03-01T08:39:41;11.95;;;6.80;;
50549;SDS011;36505;52.512;13.460;2023-03-01T08:42:06;13.13;;;7.53;;
50549;SDS011;36505;52.512;13.460;2023-03-01T08:44:32;12.15;;;7.22;;
50549;SDS011;36505;52.512;13.460;2023-03-01T08:46:58;12.30;;;8.15;;
50549;SDS011;36505;52.512;13.460;2023-03-01T08:49:24;12.27;;;7.38;;
50549;SDS011;36505;52.512;13.460;2023-03-01T08:51:50;24.67;;;15.32;;
50549;SDS011;36505;52.512;13.460;2023-03-01T08:54:17;15.45;;;8.18;;
50549;SDS011;36505;52.512;13.460;2023-03-01T08:56:44;13.60;;;7.68;;
50549;SDS011;36505;52.512;13.460;2023-03-01T08:59:10;16.50;;;8.30;;
50549;SDS011;36505;52.512;13.460;2023-03-01T09:01:37;12.35;;;7.35;;
50549;SDS011;36505;52.512;13.460;2023-03-01T09:04:03;13.32;;;7.55;;
50549;SDS011;36505;52.512;13.460;2023-03-01T09:06:31;12.63;;;6.80;;
50549;SDS011;36505;52.512;13.460;2023-03-01T09:08:58;18.00;;;8.50;;
50549;SDS011;36505;52.512;13.460;2023-03-01T09:11:24;19.50;;;8.40;;
50549;SDS011;36505;52.512;13.460;2023-03-01T09:13:50;11.85;;;6.68;;
50549;SDS011;36505;52.512;13.460;2023-03-01T09:16:16;15.52;;;10.07;;
50549;SDS011;36505;52.512;13.460;2023-03-01T09:18:43;17.80;;;7.43;;
50549;SDS011;36505;52.512;13.460;2023-03-01T09:21:13;14.10;;;7.75;;
50549;SDS011;36505;52.512;13.460;2023-03-01T09:23:41;15.63;;;8.17;;
50549;SDS011;36505;52.512;13.460;2023-03-01T09:26:08;15.90;;;8.40;;
50549;SDS011;36505;52.512;13.460;2023-03-01T09:28:36;12.85;;;7.57;;
50549;SDS011;36505;52.512;13.460;2023-03-01T09:31:02;12.63;;;6.63;;
50549;SDS011;36505;52.512;13.460;2023-03-01T09:33:29;10.82;;;6.20;;
50549;SDS011;36505;52.512;13.460;2023-03-01T09:35:58;12.02;;;5.40;;
50549;SDS011;36505;52.512;13.460;2023-03-01T09:38:24;12.30;;;4.75;;
50549;SDS011;36505;52.512;13.460;2023-03-01T09:40:50;10.77;;;5.10;;
50549;SDS011;36505;52.512;13.460;2023-03-01T09:46:01;13.40;;;7.72;;
50549;SDS011;36505;52.512;13.460;2023-03-01T09:48:30;13.30;;;5.60;;
50549;SDS011;36505;52.512;13.460;2023-03-01T09:51:02;9.50;;;5.25;;
50549;SDS011;36505;52.512;13.460;2023-03-01T09:53:32;10.32;;;4.03;;
50549;SDS011;36505;52.512;13.460;2023-03-01T10:09:39;12.87;;;4.80;;
50549;SDS011;36505;52.512;13.460;2023-03-01T10:14:39;11.05;;;4.40;;
50549;SDS011;36505;52.512;13.460;2023-03-01T10:20:21;7.10;;;4.47;;
50549;SDS011;36505;52.512;13.460;2023-03-01T10:22:49;9.55;;;5.20;;
50549;SDS011;36505;52.512;13.460;2023-03-01T10:26:07;14.45;;;5.72;;
50549;SDS011;36505;52.512;13.460;2023-03-01T10:29:00;8.35;;;4.68;;
50549;SDS011;36505;52.512;13.460;2023-03-01T10:31:09;10.52;;;5.50;;
50549;SDS011;36505;52.512;13.460;2023-03-01T10:33:38;9.02;;;4.82;;
50549;SDS011;36505;52.512;13.460;2023-03-01T10:36:07;10.88;;;4.95;;
50549;SDS011;36505;52.512;13.460;2023-03-01T10:38:47;10.20;;;4.80;;
50549;SDS011;36505;52.512;13.460;2023-03-01T10:41:22;12.35;;;5.10;;
50549;SDS011;36505;52.512;13.460;2023-03-01T10:43:49;7.57;;;4.22;;
50549;SDS011;36505;52.512;13.460;2023-03-01T10:49:18;9.63;;;3.97;;
50549;SDS011;36505;52.512;13.460;2023-03-01T10:51:45;7.70;;;4.25;;
50549;SDS011;36505;52.512;13.460;2023-03-01T10:54:24;7.93;;;3.50;;
50549;SDS011;36505;52.512;13.460;2023-03-01T10:56:54;9.80;;;3.80;;
50549;SDS011;36505;52.512;13.460;2023-03-01T11:04:34;8.50;;;3.15;;
50549;SDS011;36505;52.512;13.460;2023-03-01T11:07:00;8.35;;;3.25;;
50549;SDS011;36505;52.512;13.460;2023-03-01T11:09:29;7.53;;;3.05;;
50549;SDS011;36505;52.512;13.460;2023-03-01T11:12:02;7.95;;;4.47;;
50549;SDS011;36505;52.512;13.460;2023-03-01T11:14:32;10.65;;;4.50;;
50549;SDS011;36505;52.512;13.460;2023-03-01T11:17:10;11.77;;;5.35;;
50549;SDS011;36505;52.512;13.460;2023-03-01T11:19:37;6.47;;;3.17;;
50549;SDS011;36505;52.512;13.460;2023-03-01T11:22:07;9.85;;;3.00;;
50549;SDS011;36505;52.512;13.460;2023-03-01T11:24:41;6.03;;;3.05;;
50549;SDS011;36505;52.512;13.460;2023-03-01T11:30:44;5.40;;;3.40;;
50549;SDS011;36505;52.512;13.460;2023-03-01T11:33:13;5.55;;;2.70;;
50549;SDS011;36505;52.512;13.460;2023-03-01T11:35:50;4.20;;;2.10;;
50549;SDS011;36505;52.512;13.460;2023-03-01T11:38:29;4.22;;;1.92;;
50549;SDS011;36505;52.512;13.460;2023-03-01T11:41:00;7.90;;;3.75;;
50549;SDS011;36505;52.512;13.460;2023-03-01T11:46:25;6.13;;;2.40;;
50549;SDS011;36505;52.512;13.460;2023-03-01T11:51:56;10.63;;;2.97;;
50549;SDS011;36505;52.512;13.460;2023-03-01T12:02:49;2.35;;;1.63;;
50549;SDS011;36505;52.512;13.460;2023-03-01T12:26:05;5.07;;;2.78;;
50549;SDS011;36505;52.512;13.460;2023-03-01T12:28:45;12.32;;;4.93;;
50549;SDS011;36505;52.512;13.460;2023-03-01T12:37:29;5.25;;;2.63;;
50549;SDS011;36505;52.512;13.460;2023-03-01T12:51:17;4.95;;;2.55;;
50549;SDS011;36505;52.512;13.460;2023-03-01T12:53:48;5.40;;;2.05;;
50549;SDS011;36505;52.512;13.460;2023-03-01T12:56:22;9.45;;;2.75;;
50549;SDS011;36505;52.512;13.460;2023-03-01T12:59:04;12.35;;;4.55;;
50549;SDS011;36505;52.512;13.460;2023-03-01T13:04:23;8.45;;;3.00;;
50549;SDS011;36505;52.512;13.460;2023-03-01T13:17:46;6.10;;;2.25;;
50549;SDS011;36505;52.512;13.460;2023-03-01T13:20:14;6.32;;;3.03;;
50549;SDS011;36505;52.512;13.460;2023-03-01T13:22:41;4.70;;;2.63;;
50549;SDS011;36505;52.512;13.460;2023-03-01T13:25:15;5.05;;;2.25;;
50549;SDS011;36505;52.512;13.460;2023-03-01T13:27:43;9.18;;;2.22;;
50549;SDS011;36505;52.512;13.460;2023-03-01T13:35:50;3.88;;;2.15;;
50549;SDS011;36505;52.512;13.460;2023-03-01T13:41:10;5.13;;;2.22;;
50549;SDS011;36505;52.512;13.460;2023-03-01T13:43:37;6.75;;;2.40;;
50549;SDS011;36505;52.512;13.460;2023-03-01T13:46:38;9.70;;;2.42;;
50549;SDS011;36505;52.512;13.460;2023-03-01T13:48:57;6.45;;;3.22;;
50549;SDS011;36505;52.512;13.460;2023-03-01T13:51:25;5.32;;;2.50;;
50549;SDS011;36505;52.512;13.460;2023-03-01T13:53:52;5.75;;;2.13;;
50549;SDS011;36505;52.512;13.460;2023-03-01T13:56:33;4.95;;;2.45;;
50549;SDS011;36505;52.512;13.460;2023-03-01T13:59:05;8.50;;;2.38;;
50549;SDS011;36505;52.512;13.460;2023-03-01T14:01:38;8.18;;;2.05;;
50549;SDS011;36505;52.512;13.460;2023-03-01T14:04:16;5.75;;;2.22;;
50549;SDS011;36505;52.512;13.460;2023-03-01T14:06:45;3.20;;;1.88;;
50549;SDS011;36505;52.512;13.460;2023-03-01T14:11:50;4.53;;;2.38;;
50549;SDS011;36505;52.512;13.460;2023-03-01T14:16:55;6.78;;;2.95;;
50549;SDS011;36505;52.512;13.460;2023-03-01T14:19:54;9.57;;;3.15;;
50549;SDS011;36505;52.512;13.460;2023-03-01T14:22:25;4.20;;;2.15;;
50549;SDS011;36505;52.512;13.460;2023-03-01T14:27:20;4.82;;;2.08;;
50549;SDS011;36505;52.512;13.460;2023-03-01T14:29:59;4.20;;;2.03;;
50549;SDS011;36505;52.512;13.460;2023-03-01T14:32:27;4.03;;;2.08;;
50549;SDS011;36505;52.512;13.460;2023-03-01T14:34:54;7.60;;;2.10;;
50549;SDS011;36505;52.512;13.460;2023-03-01T14:37:26;8.65;;;2.20;;
50549;SDS011;36505;52.512;13.460;2023-03-01T14:39:59;5.53;;;2.13;;
50549;SDS011;36505;52.512;13.460;2023-03-01T14:42:27;5.38;;;1.80;;
50549;SDS011;36505;52.512;13.460;2023-03-01T14:44:56;4.97;;;2.40;;
50549;SDS011;36505;52.512;13.460;2023-03-01T14:47:26;8.25;;;2.30;;
50549;SDS011;36505;52.512;13.460;2023-03-01T14:50:19;5.80;;;2.20;;
50549;SDS011;36505;52.512;13.460;2023-03-01T14:52:53;6.28;;;2.10;;
50549;SDS011;36505;52.512;13.460;2023-03-01T14:57:50;4.65;;;2.10;;
50549;SDS011;36505;52.512;13.460;2023-03-01T15:02:47;5.38;;;2.28;;
50549;SDS011;36505;52.512;13.460;2023-03-01T15:05:15;5.43;;;2.10;;
50549;SDS011;36505;52.512;13.460;2023-03-01T15:07:54;5.97;;;2.38;;
50549;SDS011;36505;52.512;13.460;2023-03-01T15:10:22;4.70;;;2.70;;
50549;SDS011;36505;52.512;13.460;2023-03-01T15:12:50;6.63;;;3.05;;
50549;SDS011;36505;52.512;13.460;2023-03-01T15:18:11;4.82;;;2.28;;
50549;SDS011;36505;52.512;13.460;2023-03-01T15:20:40;6.82;;;2.50;;
50549;SDS011;36505;52.512;13.460;2023-03-01T15:23:06;6.00;;;2.50;;
50549;SDS011;36505;52.512;13.460;2023-03-01T15:25:43;7.57;;;2.50;;
50549;SDS011;36505;52.512;13.460;2023-03-01T15:28:12;7.60;;;3.00;;
50549;SDS011;36505;52.512;13.460;2023-03-01T15:30:45;5.47;;;2.60;;
50549;SDS011;36505;52.512;13.460;2023-03-01T15:33:25;6.65;;;2.72;;
50549;SDS011;36505;52.512;13.460;2023-03-01T15:35:55;6.97;;;2.90;;
50549;SDS011;36505;52.512;13.460;2023-03-01T15:38:34;8.18;;;2.97;;
50549;SDS011;36505;52.512;13.460;2023-03-01T15:44:14;7.90;;;3.42;;
50549;SDS011;36505;52.512;13.460;2023-03-01T15:46:50;8.82;;;2.55;;
50549;SDS011;36505;52.512;13.460;2023-03-01T15:49:33;5.38;;;2.60;;
50549;SDS011;36505;52.512;13.460;2023-03-01T15:51:58;6.47;;;3.05;;
50549;SDS011;36505;52.512;13.460;2023-03-01T15:54:24;6.10;;;2.05;;
50549;SDS011;36505;52.512;13.460;2023-03-01T15:56:52;6.65;;;3.00;;
50549;SDS011;36505;52.512;13.460;2023-03-01T15:59:17;4.20;;;2.22;;
50549;SDS011;36505;52.512;13.460;2023-03-01T16:01:43;7.30;;;3.38;;
50549;SDS011;36505;52.512;13.460;2023-03-01T16:04:13;6.05;;;2.17;;
50549;SDS011;36505;52.512;13.460;2023-03-01T16:06:46;7.60;;;2.47;;
50549;SDS011;36505;52.512;13.460;2023-03-01T16:09:19;4.35;;;2.30;;
50549;SDS011;36505;52.512;13.460;2023-03-01T16:11:46;6.15;;;2.83;;
50549;SDS011;36505;52.512;13.460;2023-03-01T16:14:12;10.20;;;2.05;;
50549;SDS011;36505;52.512;13.460;2023-03-01T16:16:38;7.22;;;2.58;;
50549;SDS011;36505;52.512;13.460;2023-03-01T16:19:03;6.60;;;2.10;;
50549;SDS011;36505;52.512;13.460;2023-03-01T16:21:28;8.15;;;2.65;;
50549;SDS011;36505;52.512;13.460;2023-03-01T16:23:54;5.65;;;2.50;;
50549;SDS011;36505;52.512;13.460;2023-03-01T16:26:19;5.47;;;2.60;;
50549;SDS011;36505;52.512;13.460;2023-03-01T16:28:45;6.53;;;2.65;;
50549;SDS011;36505;52.512;13.460;2023-03-01T16:31:10;3.55;;;2.05;;
50549;SDS011;36505;52.512;13.460;2023-03-01T16:33:37;5.38;;;2.30;;
50549;SDS011;36505;52.512;13.460;2023-03-01T16:36:06;8.07;;;2.10;;
50549;SDS011;36505;52.512;13.460;2023-03-01T16:38:33;7.28;;;2.33;;
50549;SDS011;36505;52.512;13.460;2023-03-01T16:40:59;5.72;;;2.95;;
50549;SDS011;36505;52.512;13.460;2023-03-01T16:43:25;4.80;;;2.35;;
50549;SDS011;36505;52.512;13.460;2023-03-01T16:45:50;7.45;;;3.03;;